sensor_id;sensor_type;location;lat;lon;timestamp;temperature;humidity
47765;DHT22;33529;49.242;8.670;2022-08-19T00:02:02;20.90;99.90
47765;DHT22;33529;49.242;8.670;2022-08-19T00:04:34;20.90;99.90
47765;DHT22;33529;49.242;8.670;2022-08-19T00:07:05;20.80;99.90
47765;DHT22;33529;49.242;8.670;2022-08-19T00:09:32;20.80;99.90
47765;DHT22;33529;49.242;8.670;2022-08-19T00:11:59;20.80;99.90
47765;DHT22;33529;49.242;8.670;2022-08-19T00:14:27;20.80;99.90
47765;DHT22;33529;49.242;8.670;2022-08-19T00:16:59;20.70;99.90
47765;DHT22;33529;49.242;8.670;2022-08-19T00:19:26;20.70;99.90
47765;DHT22;33529;49.242;8.670;2022-08-19T00:21:52;20.70;99.90
47765;DHT22;33529;49.242;8.670;2022-08-19T00:24:19;20.60;99.90
47765;DHT22;33529;49.242;8.670;2022-08-19T00:26:46;20.60;99.90
47765;DHT22;33529;49.242;8.670;2022-08-19T00:29:17;20.60;99.90
47765;DHT22;33529;49.242;8.670;2022-08-19T00:31:45;20.50;99.90
47765;DHT22;33529;49.242;8.670;2022-08-19T00:34:14;20.60;99.90
47765;DHT22;33529;49.242;8.670;2022-08-19T00:36:42;20.50;99.90
47765;DHT22;33529;49.242;8.670;2022-08-19T00:39:09;20.60;99.90
47765;DHT22;33529;49.242;8.670;2022-08-19T00:41:37;20.50;99.90
47765;DHT22;33529;49.242;8.670;2022-08-19T00:44:10;20.50;99.90
47765;DHT22;33529;49.242;8.670;2022-08-19T00:46:40;20.60;99.90
47765;DHT22;33529;49.242;8.670;2022-08-19T00:49:12;20.60;99.90
47765;DHT22;33529;49.242;8.670;2022-08-19T00:51:42;20.60;99.90
47765;DHT22;33529;49.242;8.670;2022-08-19T00:54:11;20.60;99.90
47765;DHT22;33529;49.242;8.670;2022-08-19T00:56:38;20.60;99.90
47765;DHT22;33529;49.242;8.670;2022-08-19T00:59:07;20.60;99.90
47765;DHT22;33529;49.242;8.670;2022-08-19T01:01:41;20.50;99.90
47765;DHT22;33529;49.242;8.670;2022-08-19T01:04:08;20.50;99.90
47765;DHT22;33529;49.242;8.670;2022-08-19T01:06:37;20.40;99.90
47765;DHT22;33529;49.242;8.670;2022-08-19T01:09:04;20.40;99.90
47765;DHT22;33529;49.242;8.670;2022-08-19T01:11:34;20.50;99.90
47765;DHT22;33529;49.242;8.670;2022-08-19T01:14:03;20.40;99.90
47765;DHT22;33529;49.242;8.670;2022-08-19T01:16:31;20.50;99.90
47765;DHT22;33529;49.242;8.670;2022-08-19T01:18:59;20.50;99.90
47765;DHT22;33529;49.242;8.670;2022-08-19T01:21:38;20.50;99.90
47765;DHT22;33529;49.242;8.670;2022-08-19T01:24:07;20.50;99.90
47765;DHT22;33529;49.242;8.670;2022-08-19T01:26:42;20.50;99.90
47765;DHT22;33529;49.242;8.670;2022-08-19T01:29:10;20.50;99.90
47765;DHT22;33529;49.242;8.670;2022-08-19T01:31:38;20.50;99.90
47765;DHT22;33529;49.242;8.670;2022-08-19T01:34:07;20.60;99.90
47765;DHT22;33529;49.242;8.670;2022-08-19T01:36:41;20.60;99.90
47765;DHT22;33529;49.242;8.670;2022-08-19T01:39:13;20.40;99.90
47765;DHT22;33529;49.242;8.670;2022-08-19T01:41:40;20.30;99.90
47765;DHT22;33529;49.242;8.670;2022-08-19T01:44:08;20.30;99.90
47765;DHT22;33529;49.242;8.670;2022-08-19T01:46:46;20.30;99.90
47765;DHT22;33529;49.242;8.670;2022-08-19T01:49:15;20.30;99.90
47765;DHT22;33529;49.242;8.670;2022-08-19T01:51:42;20.40;99.90
47765;DHT22;33529;49.242;8.670;2022-08-19T01:54:12;20.50;99.90
47765;DHT22;33529;49.242;8.670;2022-08-19T01:57:00;20.50;99.90
47765;DHT22;33529;49.242;8.670;2022-08-19T01:59:28;20.50;99.90
47765;DHT22;33529;49.242;8.670;2022-08-19T02:01:54;20.50;99.90
47765;DHT22;33529;49.242;8.670;2022-08-19T02:04:21;20.50;99.90
47765;DHT22;33529;49.242;8.670;2022-08-19T02:06:50;20.40;99.90
47765;DHT22;33529;49.242;8.670;2022-08-19T02:09:17;20.40;99.90
47765;DHT22;33529;49.242;8.670;2022-08-19T02:11:44;20.50;99.90
47765;DHT22;33529;49.242;8.670;2022-08-19T02:14:10;20.40;99.90
47765;DHT22;33529;49.242;8.670;2022-08-19T02:16:37;20.50;99.90
47765;DHT22;33529;49.242;8.670;2022-08-19T02:19:05;20.50;99.90
47765;DHT22;33529;49.242;8.670;2022-08-19T02:21:33;20.50;99.90
47765;DHT22;33529;49.242;8.670;2022-08-19T02:24:00;20.40;99.90
47765;DHT22;33529;49.242;8.670;2022-08-19T02:26:27;20.30;99.90
47765;DHT22;33529;49.242;8.670;2022-08-19T02:28:55;20.30;99.90
47765;DHT22;33529;49.242;8.670;2022-08-19T02:31:24;20.40;99.90
47765;DHT22;33529;49.242;8.670;2022-08-19T02:33:52;20.40;99.90
47765;DHT22;33529;49.242;8.670;2022-08-19T02:36:23;20.20;99.90
47765;DHT22;33529;49.242;8.670;2022-08-19T02:38:50;20.10;99.90
47765;DHT22;33529;49.242;8.670;2022-08-19T02:41:24;20.10;99.90
47765;DHT22;33529;49.242;8.670;2022-08-19T02:43:54;20.10;99.90
47765;DHT22;33529;49.242;8.670;2022-08-19T02:46:41;20.20;99.90
47765;DHT22;33529;49.242;8.670;2022-08-19T02:49:08;20.10;99.90
47765;DHT22;33529;49.242;8.670;2022-08-19T02:51:40;20.20;99.90
47765;DHT22;33529;49.242;8.670;2022-08-19T02:54:08;20.20;99.90
47765;DHT22;33529;49.242;8.670;2022-08-19T02:56:37;20.20;99.90
47765;DHT22;33529;49.242;8.670;2022-08-19T02:59:05;20.10;99.90
47765;DHT22;33529;49.242;8.670;2022-08-19T03:01:39;20.10;99.90
47765;DHT22;33529;49.242;8.670;2022-08-19T03:04:08;20.00;99.90
47765;DHT22;33529;49.242;8.670;2022-08-19T03:06:38;20.00;99.90
47765;DHT22;33529;49.242;8.670;2022-08-19T03:09:05;20.00;99.90
47765;DHT22;33529;49.242;8.670;2022-08-19T03:11:32;20.00;99.90
47765;DHT22;33529;49.242;8.670;2022-08-19T03:14:01;20.00;99.90
47765;DHT22;33529;49.242;8.670;2022-08-19T03:16:32;20.00;99.90
47765;DHT22;33529;49.242;8.670;2022-08-19T03:19:00;20.00;99.90
47765;DHT22;33529;49.242;8.670;2022-08-19T03:21:30;20.00;99.90
47765;DHT22;33529;49.242;8.670;2022-08-19T03:23:59;20.00;99.90
47765;DHT22;33529;49.242;8.670;2022-08-19T03:26:26;20.00;99.90
47765;DHT22;33529;49.242;8.670;2022-08-19T03:28:53;20.00;99.90
47765;DHT22;33529;49.242;8.670;2022-08-19T03:31:26;20.00;99.90
47765;DHT22;33529;49.242;8.670;2022-08-19T03:34:18;20.00;99.90
47765;DHT22;33529;49.242;8.670;2022-08-19T03:36:49;19.90;99.90
47765;DHT22;33529;49.242;8.670;2022-08-19T03:39:16;19.80;99.90
47765;DHT22;33529;49.242;8.670;2022-08-19T03:41:45;19.80;99.90
47765;DHT22;33529;49.242;8.670;2022-08-19T03:44:20;19.80;99.90
47765;DHT22;33529;49.242;8.670;2022-08-19T03:46:51;19.70;99.90
47765;DHT22;33529;49.242;8.670;2022-08-19T03:49:19;19.80;99.90
47765;DHT22;33529;49.242;8.670;2022-08-19T03:51:48;19.70;99.90
47765;DHT22;33529;49.242;8.670;2022-08-19T03:54:18;19.70;99.90
47765;DHT22;33529;49.242;8.670;2022-08-19T03:56:47;19.70;99.90
47765;DHT22;33529;49.242;8.670;2022-08-19T03:59:18;19.70;99.90
47765;DHT22;33529;49.242;8.670;2022-08-19T04:01:46;19.60;99.90
47765;DHT22;33529;49.242;8.670;2022-08-19T04:04:13;19.60;99.90
47765;DHT22;33529;49.242;8.670;2022-08-19T04:06:40;19.60;99.90
47765;DHT22;33529;49.242;8.670;2022-08-19T04:09:09;19.60;99.90
47765;DHT22;33529;49.242;8.670;2022-08-19T04:11:48;19.50;99.90
47765;DHT22;33529;49.242;8.670;2022-08-19T04:14:21;19.50;99.90
47765;DHT22;33529;49.242;8.670;2022-08-19T04:16:48;19.40;99.90
47765;DHT22;33529;49.242;8.670;2022-08-19T04:19:17;19.30;99.90
47765;DHT22;33529;49.242;8.670;2022-08-19T04:21:47;19.30;99.90
47765;DHT22;33529;49.242;8.670;2022-08-19T04:24:15;19.20;99.90
47765;DHT22;33529;49.242;8.670;2022-08-19T04:26:42;19.30;99.90
47765;DHT22;33529;49.242;8.670;2022-08-19T04:29:12;19.30;99.90
47765;DHT22;33529;49.242;8.670;2022-08-19T04:31:40;19.40;99.90
47765;DHT22;33529;49.242;8.670;2022-08-19T04:34:10;19.50;99.90
47765;DHT22;33529;49.242;8.670;2022-08-19T04:36:39;19.50;99.90
47765;DHT22;33529;49.242;8.670;2022-08-19T04:39:10;19.40;99.90
47765;DHT22;33529;49.242;8.670;2022-08-19T04:41:37;19.40;99.90
47765;DHT22;33529;49.242;8.670;2022-08-19T04:44:22;19.40;99.90
47765;DHT22;33529;49.242;8.670;2022-08-19T04:46:50;19.40;99.90
47765;DHT22;33529;49.242;8.670;2022-08-19T04:49:21;19.40;99.90
47765;DHT22;33529;49.242;8.670;2022-08-19T04:51:50;19.40;99.90
47765;DHT22;33529;49.242;8.670;2022-08-19T04:54:22;19.40;99.90
47765;DHT22;33529;49.242;8.670;2022-08-19T04:57:06;19.30;99.90
47765;DHT22;33529;49.242;8.670;2022-08-19T04:59:35;19.30;99.90
47765;DHT22;33529;49.242;8.670;2022-08-19T05:02:03;19.40;99.90
47765;DHT22;33529;49.242;8.670;2022-08-19T05:04:31;19.40;99.90
47765;DHT22;33529;49.242;8.670;2022-08-19T05:07:00;19.50;99.90
47765;DHT22;33529;49.242;8.670;2022-08-19T05:09:29;19.50;99.90
47765;DHT22;33529;49.242;8.670;2022-08-19T05:12:16;19.60;99.90
47765;DHT22;33529;49.242;8.670;2022-08-19T05:14:44;19.70;99.90
47765;DHT22;33529;49.242;8.670;2022-08-19T05:17:11;19.70;99.90
47765;DHT22;33529;49.242;8.670;2022-08-19T05:19:54;19.70;99.90
47765;DHT22;33529;49.242;8.670;2022-08-19T05:22:40;19.80;99.90
47765;DHT22;33529;49.242;8.670;2022-08-19T05:25:10;19.90;99.90
47765;DHT22;33529;49.242;8.670;2022-08-19T05:27:40;20.00;99.90
47765;DHT22;33529;49.242;8.670;2022-08-19T05:30:08;20.00;99.90
47765;DHT22;33529;49.242;8.670;2022-08-19T05:32:35;20.10;99.90
47765;DHT22;33529;49.242;8.670;2022-08-19T05:35:04;20.20;99.90
47765;DHT22;33529;49.242;8.670;2022-08-19T05:37:30;20.20;99.90
47765;DHT22;33529;49.242;8.670;2022-08-19T05:39:57;20.20;99.90
47765;DHT22;33529;49.242;8.670;2022-08-19T05:42:24;20.30;99.90
47765;DHT22;33529;49.242;8.670;2022-08-19T05:44:51;20.40;99.90
47765;DHT22;33529;49.242;8.670;2022-08-19T05:47:19;20.50;99.90
47765;DHT22;33529;49.242;8.670;2022-08-19T05:49:47;20.50;99.90
47765;DHT22;33529;49.242;8.670;2022-08-19T05:52:16;20.60;99.90
47765;DHT22;33529;49.242;8.670;2022-08-19T05:54:45;20.50;99.90
47765;DHT22;33529;49.242;8.670;2022-08-19T05:57:18;20.60;99.90
47765;DHT22;33529;49.242;8.670;2022-08-19T05:59:46;20.70;99.90
47765;DHT22;33529;49.242;8.670;2022-08-19T06:02:18;20.80;99.90
47765;DHT22;33529;49.242;8.670;2022-08-19T06:04:45;20.90;99.90
47765;DHT22;33529;49.242;8.670;2022-08-19T06:07:13;20.90;99.90
47765;DHT22;33529;49.242;8.670;2022-08-19T06:09:40;20.90;99.90
47765;DHT22;33529;49.242;8.670;2022-08-19T06:12:09;21.00;99.90
47765;DHT22;33529;49.242;8.670;2022-08-19T06:14:36;21.00;99.90
47765;DHT22;33529;49.242;8.670;2022-08-19T06:17:07;21.00;99.90
47765;DHT22;33529;49.242;8.670;2022-08-19T06:19:35;21.10;99.90
47765;DHT22;33529;49.242;8.670;2022-08-19T06:22:07;21.20;99.90
47765;DHT22;33529;49.242;8.670;2022-08-19T06:24:34;21.20;99.90
47765;DHT22;33529;49.242;8.670;2022-08-19T06:27:03;21.30;99.90
47765;DHT22;33529;49.242;8.670;2022-08-19T06:29:32;21.40;99.90
47765;DHT22;33529;49.242;8.670;2022-08-19T06:32:01;21.40;99.90
47765;DHT22;33529;49.242;8.670;2022-08-19T06:34:31;21.40;99.90
47765;DHT22;33529;49.242;8.670;2022-08-19T06:37:00;21.40;99.90
47765;DHT22;33529;49.242;8.670;2022-08-19T06:39:33;21.40;99.90
47765;DHT22;33529;49.242;8.670;2022-08-19T06:42:03;21.40;99.90
47765;DHT22;33529;49.242;8.670;2022-08-19T06:44:36;21.50;99.90
47765;DHT22;33529;49.242;8.670;2022-08-19T06:47:12;21.60;99.90
47765;DHT22;33529;49.242;8.670;2022-08-19T06:49:41;21.60;99.90
47765;DHT22;33529;49.242;8.670;2022-08-19T06:52:08;21.60;99.90
47765;DHT22;33529;49.242;8.670;2022-08-19T06:54:41;21.70;99.90
47765;DHT22;33529;49.242;8.670;2022-08-19T06:57:22;21.70;99.90
47765;DHT22;33529;49.242;8.670;2022-08-19T06:59:49;21.80;99.90
47765;DHT22;33529;49.242;8.670;2022-08-19T07:02:16;21.90;99.90
47765;DHT22;33529;49.242;8.670;2022-08-19T07:04:43;22.00;99.90
47765;DHT22;33529;49.242;8.670;2022-08-19T07:07:13;22.10;99.90
47765;DHT22;33529;49.242;8.670;2022-08-19T07:09:48;22.00;99.90
47765;DHT22;33529;49.242;8.670;2022-08-19T07:12:30;22.00;99.90
47765;DHT22;33529;49.242;8.670;2022-08-19T07:15:03;22.10;99.90
47765;DHT22;33529;49.242;8.670;2022-08-19T07:17:31;22.20;99.90
47765;DHT22;33529;49.242;8.670;2022-08-19T07:20:01;22.20;99.90
47765;DHT22;33529;49.242;8.670;2022-08-19T07:22:33;22.30;99.90
47765;DHT22;33529;49.242;8.670;2022-08-19T07:25:00;22.30;99.90
47765;DHT22;33529;49.242;8.670;2022-08-19T07:27:29;22.20;99.90
47765;DHT22;33529;49.242;8.670;2022-08-19T07:29:59;22.30;99.90
47765;DHT22;33529;49.242;8.670;2022-08-19T07:32:26;22.30;99.90
47765;DHT22;33529;49.242;8.670;2022-08-19T07:34:53;22.30;99.90
47765;DHT22;33529;49.242;8.670;2022-08-19T07:37:22;22.40;99.90
47765;DHT22;33529;49.242;8.670;2022-08-19T07:39:49;22.50;99.90
47765;DHT22;33529;49.242;8.670;2022-08-19T07:42:16;22.50;99.90
47765;DHT22;33529;49.242;8.670;2022-08-19T07:44:43;22.50;99.90
47765;DHT22;33529;49.242;8.670;2022-08-19T07:47:17;22.60;99.90
47765;DHT22;33529;49.242;8.670;2022-08-19T07:50:07;22.70;99.90
47765;DHT22;33529;49.242;8.670;2022-08-19T07:52:36;22.70;99.90
47765;DHT22;33529;49.242;8.670;2022-08-19T07:55:06;22.70;99.90
47765;DHT22;33529;49.242;8.670;2022-08-19T07:57:53;22.80;99.90
47765;DHT22;33529;49.242;8.670;2022-08-19T08:00:21;22.70;99.90
47765;DHT22;33529;49.242;8.670;2022-08-19T08:02:51;22.70;99.90
47765;DHT22;33529;49.242;8.670;2022-08-19T08:05:23;22.90;99.90
47765;DHT22;33529;49.242;8.670;2022-08-19T08:08:11;22.90;99.90
47765;DHT22;33529;49.242;8.670;2022-08-19T08:10:58;23.00;99.90
47765;DHT22;33529;49.242;8.670;2022-08-19T08:13:25;23.00;99.90
47765;DHT22;33529;49.242;8.670;2022-08-19T08:15:53;23.10;99.90
47765;DHT22;33529;49.242;8.670;2022-08-19T08:18:24;23.20;99.90
47765;DHT22;33529;49.242;8.670;2022-08-19T08:20:54;23.40;99.90
47765;DHT22;33529;49.242;8.670;2022-08-19T08:23:21;23.40;99.90
47765;DHT22;33529;49.242;8.670;2022-08-19T08:25:49;23.40;99.90
47765;DHT22;33529;49.242;8.670;2022-08-19T08:28:17;23.50;99.90
47765;DHT22;33529;49.242;8.670;2022-08-19T08:30:45;23.50;99.90
47765;DHT22;33529;49.242;8.670;2022-08-19T08:33:19;23.60;99.90
47765;DHT22;33529;49.242;8.670;2022-08-19T08:36:09;23.90;99.90
47765;DHT22;33529;49.242;8.670;2022-08-19T08:38:39;24.10;99.90
47765;DHT22;33529;49.242;8.670;2022-08-19T08:43:48;24.10;99.90
47765;DHT22;33529;49.242;8.670;2022-08-19T08:46:29;24.10;99.90
47765;DHT22;33529;49.242;8.670;2022-08-19T08:49:07;24.20;99.90
47765;DHT22;33529;49.242;8.670;2022-08-19T08:51:45;24.40;99.90
47765;DHT22;33529;49.242;8.670;2022-08-19T08:54:25;24.30;99.90
47765;DHT22;33529;49.242;8.670;2022-08-19T08:56:54;24.40;99.90
47765;DHT22;33529;49.242;8.670;2022-08-19T08:59:34;24.40;99.90
47765;DHT22;33529;49.242;8.670;2022-08-19T09:02:04;24.30;99.90
47765;DHT22;33529;49.242;8.670;2022-08-19T09:04:31;24.40;99.90
47765;DHT22;33529;49.242;8.670;2022-08-19T09:10:10;24.50;99.80
47765;DHT22;33529;49.242;8.670;2022-08-19T09:16:00;24.60;99.00
47765;DHT22;33529;49.242;8.670;2022-08-19T09:18:46;24.70;98.40
47765;DHT22;33529;49.242;8.670;2022-08-19T09:21:15;24.90;98.40
47765;DHT22;33529;49.242;8.670;2022-08-19T09:23:43;25.10;98.00
47765;DHT22;33529;49.242;8.670;2022-08-19T09:26:13;25.00;97.60
47765;DHT22;33529;49.242;8.670;2022-08-19T09:28:44;25.20;97.50
47765;DHT22;33529;49.242;8.670;2022-08-19T09:31:17;25.30;97.10
47765;DHT22;33529;49.242;8.670;2022-08-19T09:33:44;25.50;96.70
47765;DHT22;33529;49.242;8.670;2022-08-19T09:36:12;25.80;96.10
47765;DHT22;33529;49.242;8.670;2022-08-19T09:38:50;25.80;95.20
47765;DHT22;33529;49.242;8.670;2022-08-19T09:41:21;25.80;95.10
47765;DHT22;33529;49.242;8.670;2022-08-19T09:43:52;25.80;94.40
47765;DHT22;33529;49.242;8.670;2022-08-19T09:46:20;26.00;94.70
47765;DHT22;33529;49.242;8.670;2022-08-19T09:48:51;26.10;94.30
47765;DHT22;33529;49.242;8.670;2022-08-19T09:51:23;26.30;93.70
47765;DHT22;33529;49.242;8.670;2022-08-19T09:53:52;26.30;93.50
47765;DHT22;33529;49.242;8.670;2022-08-19T09:56:21;26.50;93.30
47765;DHT22;33529;49.242;8.670;2022-08-19T09:58:50;26.60;92.40
47765;DHT22;33529;49.242;8.670;2022-08-19T10:01:22;26.60;92.50
47765;DHT22;33529;49.242;8.670;2022-08-19T10:03:51;26.90;92.50
47765;DHT22;33529;49.242;8.670;2022-08-19T10:06:21;27.00;91.80
47765;DHT22;33529;49.242;8.670;2022-08-19T10:09:10;27.00;91.00
47765;DHT22;33529;49.242;8.670;2022-08-19T10:11:40;26.70;91.70
47765;DHT22;33529;49.242;8.670;2022-08-19T10:14:18;26.50;91.60
47765;DHT22;33529;49.242;8.670;2022-08-19T10:16:48;26.50;91.10
47765;DHT22;33529;49.242;8.670;2022-08-19T10:19:16;26.50;91.40
47765;DHT22;33529;49.242;8.670;2022-08-19T10:21:52;26.80;91.40
47765;DHT22;33529;49.242;8.670;2022-08-19T10:24:26;27.20;90.90
47765;DHT22;33529;49.242;8.670;2022-08-19T10:26:55;27.40;90.80
47765;DHT22;33529;49.242;8.670;2022-08-19T10:29:26;27.10;90.70
47765;DHT22;33529;49.242;8.670;2022-08-19T10:31:59;26.70;90.40
47765;DHT22;33529;49.242;8.670;2022-08-19T10:34:29;26.40;90.50
47765;DHT22;33529;49.242;8.670;2022-08-19T10:36:57;26.40;90.50
47765;DHT22;33529;49.242;8.670;2022-08-19T10:39:35;26.30;91.10
47765;DHT22;33529;49.242;8.670;2022-08-19T10:42:09;26.50;90.50
47765;DHT22;33529;49.242;8.670;2022-08-19T10:44:37;26.70;90.10
47765;DHT22;33529;49.242;8.670;2022-08-19T10:47:04;26.80;89.70
47765;DHT22;33529;49.242;8.670;2022-08-19T10:49:51;27.00;87.90
47765;DHT22;33529;49.242;8.670;2022-08-19T10:52:41;27.20;87.40
47765;DHT22;33529;49.242;8.670;2022-08-19T10:55:21;27.30;87.90
47765;DHT22;33529;49.242;8.670;2022-08-19T10:58:11;27.20;87.80
47765;DHT22;33529;49.242;8.670;2022-08-19T11:00:39;27.30;88.70
47765;DHT22;33529;49.242;8.670;2022-08-19T11:03:06;27.70;88.80
47765;DHT22;33529;49.242;8.670;2022-08-19T11:05:35;27.60;88.50
47765;DHT22;33529;49.242;8.670;2022-08-19T11:08:06;27.10;89.80
47765;DHT22;33529;49.242;8.670;2022-08-19T11:10:49;26.80;90.00
47765;DHT22;33529;49.242;8.670;2022-08-19T11:13:16;26.90;88.90
47765;DHT22;33529;49.242;8.670;2022-08-19T11:15:43;27.10;88.70
47765;DHT22;33529;49.242;8.670;2022-08-19T11:18:10;27.20;88.40
47765;DHT22;33529;49.242;8.670;2022-08-19T11:20:39;27.60;87.90
47765;DHT22;33529;49.242;8.670;2022-08-19T11:23:05;27.50;87.70
47765;DHT22;33529;49.242;8.670;2022-08-19T11:25:32;27.60;86.80
47765;DHT22;33529;49.242;8.670;2022-08-19T11:28:01;28.00;87.70
47765;DHT22;33529;49.242;8.670;2022-08-19T11:30:28;28.30;85.70
47765;DHT22;33529;49.242;8.670;2022-08-19T11:32:54;28.50;84.50
47765;DHT22;33529;49.242;8.670;2022-08-19T11:35:22;28.10;85.00
47765;DHT22;33529;49.242;8.670;2022-08-19T11:37:49;28.30;84.80
47765;DHT22;33529;49.242;8.670;2022-08-19T11:40:16;28.20;85.80
47765;DHT22;33529;49.242;8.670;2022-08-19T11:42:43;27.80;86.80
47765;DHT22;33529;49.242;8.670;2022-08-19T11:45:24;27.60;88.50
47765;DHT22;33529;49.242;8.670;2022-08-19T11:47:51;27.50;87.40
47765;DHT22;33529;49.242;8.670;2022-08-19T11:50:19;27.40;87.40
47765;DHT22;33529;49.242;8.670;2022-08-19T11:52:46;27.30;87.50
47765;DHT22;33529;49.242;8.670;2022-08-19T11:55:13;27.30;88.00
47765;DHT22;33529;49.242;8.670;2022-08-19T11:57:41;27.40;87.10
47765;DHT22;33529;49.242;8.670;2022-08-19T12:00:09;27.70;86.50
47765;DHT22;33529;49.242;8.670;2022-08-19T12:02:39;28.00;86.20
47765;DHT22;33529;49.242;8.670;2022-08-19T12:05:06;28.30;85.10
47765;DHT22;33529;49.242;8.670;2022-08-19T12:07:39;28.50;85.00
47765;DHT22;33529;49.242;8.670;2022-08-19T12:10:10;28.20;84.40
47765;DHT22;33529;49.242;8.670;2022-08-19T12:12:37;27.90;85.10
47765;DHT22;33529;49.242;8.670;2022-08-19T12:15:10;27.80;82.80
47765;DHT22;33529;49.242;8.670;2022-08-19T12:17:38;28.00;82.30
47765;DHT22;33529;49.242;8.670;2022-08-19T12:20:05;28.30;80.80
47765;DHT22;33529;49.242;8.670;2022-08-19T12:22:33;28.30;80.20
47765;DHT22;33529;49.242;8.670;2022-08-19T12:25:01;28.20;81.60
47765;DHT22;33529;49.242;8.670;2022-08-19T12:27:28;28.30;80.50
47765;DHT22;33529;49.242;8.670;2022-08-19T12:30:09;28.10;80.10
47765;DHT22;33529;49.242;8.670;2022-08-19T12:32:37;28.10;81.00
47765;DHT22;33529;49.242;8.670;2022-08-19T12:35:05;28.10;80.00
47765;DHT22;33529;49.242;8.670;2022-08-19T12:37:32;27.80;81.20
47765;DHT22;33529;49.242;8.670;2022-08-19T12:39:59;27.80;81.40
47765;DHT22;33529;49.242;8.670;2022-08-19T12:42:26;27.60;79.40
47765;DHT22;33529;49.242;8.670;2022-08-19T12:44:53;27.40;80.00
47765;DHT22;33529;49.242;8.670;2022-08-19T12:47:20;27.30;80.90
47765;DHT22;33529;49.242;8.670;2022-08-19T12:49:48;27.20;80.30
47765;DHT22;33529;49.242;8.670;2022-08-19T12:52:22;27.20;80.40
47765;DHT22;33529;49.242;8.670;2022-08-19T12:54:50;27.20;79.90
47765;DHT22;33529;49.242;8.670;2022-08-19T12:57:23;27.20;80.50
47765;DHT22;33529;49.242;8.670;2022-08-19T13:00:00;27.40;80.70
47765;DHT22;33529;49.242;8.670;2022-08-19T13:02:30;27.60;81.30
47765;DHT22;33529;49.242;8.670;2022-08-19T13:05:05;27.70;79.80
47765;DHT22;33529;49.242;8.670;2022-08-19T13:07:35;28.00;78.80
47765;DHT22;33529;49.242;8.670;2022-08-19T13:10:03;28.00;78.00
47765;DHT22;33529;49.242;8.670;2022-08-19T13:12:30;28.20;78.00
47765;DHT22;33529;49.242;8.670;2022-08-19T13:14:56;28.50;77.50
47765;DHT22;33529;49.242;8.670;2022-08-19T13:17:24;28.60;75.80
47765;DHT22;33529;49.242;8.670;2022-08-19T13:19:50;28.70;76.10
47765;DHT22;33529;49.242;8.670;2022-08-19T13:22:18;29.00;75.10
47765;DHT22;33529;49.242;8.670;2022-08-19T13:24:45;28.80;74.30
47765;DHT22;33529;49.242;8.670;2022-08-19T13:27:13;28.70;74.80
47765;DHT22;33529;49.242;8.670;2022-08-19T13:29:42;28.70;75.10
47765;DHT22;33529;49.242;8.670;2022-08-19T13:32:29;28.70;74.20
47765;DHT22;33529;49.242;8.670;2022-08-19T13:35:15;28.60;72.70
47765;DHT22;33529;49.242;8.670;2022-08-19T13:37:43;28.60;73.00
47765;DHT22;33529;49.242;8.670;2022-08-19T13:40:15;28.80;73.20
47765;DHT22;33529;49.242;8.670;2022-08-19T13:42:47;28.70;70.90
47765;DHT22;33529;49.242;8.670;2022-08-19T13:45:24;28.60;71.70
47765;DHT22;33529;49.242;8.670;2022-08-19T13:47:54;28.60;71.50
47765;DHT22;33529;49.242;8.670;2022-08-19T13:50:29;28.90;71.20
47765;DHT22;33529;49.242;8.670;2022-08-19T13:52:58;29.20;71.20
47765;DHT22;33529;49.242;8.670;2022-08-19T13:55:26;29.20;69.50
47765;DHT22;33529;49.242;8.670;2022-08-19T13:57:54;29.10;69.90
47765;DHT22;33529;49.242;8.670;2022-08-19T14:00:23;29.20;69.60
47765;DHT22;33529;49.242;8.670;2022-08-19T14:02:55;29.10;69.20
47765;DHT22;33529;49.242;8.670;2022-08-19T14:05:25;29.00;70.10
47765;DHT22;33529;49.242;8.670;2022-08-19T14:07:52;29.20;68.30
47765;DHT22;33529;49.242;8.670;2022-08-19T14:10:21;29.20;68.30
47765;DHT22;33529;49.242;8.670;2022-08-19T14:12:48;29.30;68.40
47765;DHT22;33529;49.242;8.670;2022-08-19T14:15:15;29.30;68.20
47765;DHT22;33529;49.242;8.670;2022-08-19T14:17:44;29.30;67.70
47765;DHT22;33529;49.242;8.670;2022-08-19T14:20:13;29.40;67.50
47765;DHT22;33529;49.242;8.670;2022-08-19T14:22:46;29.60;67.70
47765;DHT22;33529;49.242;8.670;2022-08-19T14:25:20;29.70;67.40
47765;DHT22;33529;49.242;8.670;2022-08-19T14:27:47;29.60;67.10
47765;DHT22;33529;49.242;8.670;2022-08-19T14:30:20;29.70;66.60
47765;DHT22;33529;49.242;8.670;2022-08-19T14:32:47;29.60;67.20
47765;DHT22;33529;49.242;8.670;2022-08-19T14:35:15;29.60;67.50
47765;DHT22;33529;49.242;8.670;2022-08-19T14:37:43;29.60;66.70
47765;DHT22;33529;49.242;8.670;2022-08-19T14:40:24;29.50;67.20
47765;DHT22;33529;49.242;8.670;2022-08-19T14:43:00;29.60;66.30
47765;DHT22;33529;49.242;8.670;2022-08-19T14:45:36;29.60;66.40
47765;DHT22;33529;49.242;8.670;2022-08-19T14:48:04;29.50;66.70
47765;DHT22;33529;49.242;8.670;2022-08-19T14:50:31;29.50;67.10
47765;DHT22;33529;49.242;8.670;2022-08-19T14:53:01;29.60;66.60
47765;DHT22;33529;49.242;8.670;2022-08-19T14:55:44;29.50;66.80
47765;DHT22;33529;49.242;8.670;2022-08-19T14:58:12;29.40;67.40
47765;DHT22;33529;49.242;8.670;2022-08-19T15:00:56;29.20;67.10
47765;DHT22;33529;49.242;8.670;2022-08-19T15:03:23;29.10;67.60
47765;DHT22;33529;49.242;8.670;2022-08-19T15:05:50;29.00;67.70
47765;DHT22;33529;49.242;8.670;2022-08-19T15:08:17;29.00;66.90
47765;DHT22;33529;49.242;8.670;2022-08-19T15:10:44;29.00;67.10
47765;DHT22;33529;49.242;8.670;2022-08-19T15:13:12;28.80;67.50
47765;DHT22;33529;49.242;8.670;2022-08-19T15:15:39;28.80;67.60
47765;DHT22;33529;49.242;8.670;2022-08-19T15:18:06;28.70;67.40
47765;DHT22;33529;49.242;8.670;2022-08-19T15:20:33;28.70;67.70
47765;DHT22;33529;49.242;8.670;2022-08-19T15:22:59;28.80;67.70
47765;DHT22;33529;49.242;8.670;2022-08-19T15:25:27;28.90;68.20
47765;DHT22;33529;49.242;8.670;2022-08-19T15:27:53;29.00;67.80
47765;DHT22;33529;49.242;8.670;2022-08-19T15:30:24;29.00;68.20
47765;DHT22;33529;49.242;8.670;2022-08-19T15:32:51;29.10;68.10
47765;DHT22;33529;49.242;8.670;2022-08-19T15:35:22;29.00;67.70
47765;DHT22;33529;49.242;8.670;2022-08-19T15:37:50;28.90;67.70
47765;DHT22;33529;49.242;8.670;2022-08-19T15:40:18;28.90;67.80
47765;DHT22;33529;49.242;8.670;2022-08-19T15:42:46;28.80;67.50
47765;DHT22;33529;49.242;8.670;2022-08-19T15:45:14;28.70;67.40
47765;DHT22;33529;49.242;8.670;2022-08-19T15:47:41;28.70;68.10
47765;DHT22;33529;49.242;8.670;2022-08-19T15:50:14;28.50;67.90
47765;DHT22;33529;49.242;8.670;2022-08-19T15:52:55;28.60;68.20
47765;DHT22;33529;49.242;8.670;2022-08-19T15:55:25;28.70;68.00
47765;DHT22;33529;49.242;8.670;2022-08-19T15:58:07;28.60;68.40
47765;DHT22;33529;49.242;8.670;2022-08-19T16:00:57;28.60;67.80